Time;durP1;ratioP1;P1;durP2;ratioP2;P2;SDS_P1;SDS_P2;PMS_P1;PMS_P2;Temp;Humidity;BMP_temperature;BMP_pressure;BME280_temperature;BME280_humidity;BME280_pressure;Samples;Min_cycle;Max_cycle;Signal;HPM_P1;HPM_P2
2023/03/08 00:02:06;;;;;;;;;;;;;;;-140.72;100.00;53271.59;5079291;28;20278;-72
2023/03/08 00:04:31;;;;;;;;;;;;;;;-140.72;100.00;53269.56;5077804;28;19922;-72
2023/03/08 00:06:56;;;;;;;;;;;;;;;-140.72;100.00;53310.16;5066822;28;19920;-72
2023/03/08 00:09:21;;;;;;;;;;;;;;;-140.72;100.00;53267.53;5107584;27;19923;-72
2023/03/08 00:11:47;;;;;;;;;;;;;;;-140.72;100.00;53293.91;5069864;28;19968;-72
2023/03/08 00:14:12;;;;;;;;;;;;;;;-140.72;100.00;53320.31;5066347;28;19916;-72
2023/03/08 00:16:37;;;;;;;;;;;;;;;-140.72;100.00;53300.00;5068202;28;19916;-72
2023/03/08 00:19:02;;;;;;;;;;;;;;;-140.72;100.00;53255.34;5067778;28;20026;-71
2023/03/08 00:21:28;;;;;;;;;;;;;;;-140.72;100.00;53239.13;5062584;28;20256;-72
2023/03/08 00:23:53;;;;;;;;;;;;;;;-140.72;100.00;53255.34;5068171;28;19921;-72
2023/03/08 00:26:19;;;;;;;;;;;;;;;-140.72;100.00;53275.66;5068027;28;19986;-72
2023/03/08 00:28:45;;;;;;;;;;;;;;;-140.72;100.00;53275.66;5068377;28;19917;-72
2023/03/08 00:31:11;;;;;;;;;;;;;;;-140.72;100.00;53279.72;5067784;28;19928;-72
2023/03/08 00:33:36;;;;;;;;;;;;;;;-140.72;100.00;53285.81;5069735;28;19921;-71
2023/03/08 00:36:02;;;;;;;;;;;;;;;-140.72;100.00;53239.13;5069421;28;19943;-72
2023/03/08 00:38:27;;;;;;;;;;;;;;;-140.72;100.00;53259.41;5100820;27;19928;-72
2023/03/08 00:40:53;;;;;;;;;;;;;;;-140.72;100.00;53289.88;5071756;28;20389;-72
2023/03/08 00:43:18;;;;;;;;;;;;;;;-140.72;100.00;53287.84;5069265;28;20011;-72
2023/03/08 00:45:44;;;;;;;;;;;;;;;-140.72;100.00;53293.91;5072313;28;19917;-72
2023/03/08 00:48:09;;;;;;;;;;;;;;;-140.72;100.00;53287.84;5071002;28;19921;-72
2023/03/08 00:50:34;;;;;;;;;;;;;;;-140.72;100.00;53267.53;5071529;28;19916;-72
2023/03/08 00:52:59;;;;;;;;;;;;;;;-140.72;100.00;53332.47;5102551;28;20000;-72
2023/03/08 00:55:25;;;;;;;;;;;;;;;-140.72;100.00;53334.50;5074823;28;19966;-72
2023/03/08 00:57:50;;;;;;;;;;;;;;;-140.72;100.00;53275.66;5095399;28;19952;-72
2023/03/08 01:00:16;;;;;;;;;;;;;;;-140.72;100.00;53257.38;5066133;28;19925;-72
2023/03/08 01:02:41;;;;;;;;;;;;;;;-140.72;100.00;53293.91;5065514;28;19924;-72
2023/03/08 01:05:08;;;;;;;;;;;;;;;-140.72;100.00;53295.94;5067778;28;21278;-72
2023/03/08 01:07:34;;;;;;;;;;;;;;;-140.72;100.00;53300.00;5068635;28;19924;-72
2023/03/08 01:09:59;;;;;;;;;;;;;;;-140.72;100.00;53285.81;5070592;28;19935;-71
2023/03/08 01:12:24;;;;;;;;;;;;;;;-140.72;100.00;53314.22;5067539;28;19920;-72
2023/03/08 01:14:50;;;;;;;;;;;;;;;-140.72;100.00;53302.03;5067843;28;19917;-72
2023/03/08 01:17:15;;;;;;;;;;;;;;;-140.72;100.00;53320.31;5068547;28;19920;-72
2023/03/08 01:19:41;;;;;;;;;;;;;;;-140.72;100.00;53302.03;5066866;28;19942;-72
2023/03/08 01:22:06;;;;;;;;;;;;;;;-140.72;100.00;53275.66;5064217;28;20402;-72
2023/03/08 01:24:31;;;;;;;;;;;;;;;-140.72;100.00;53251.31;5073430;28;20274;-72
2023/03/08 01:26:59;;;;;;;;;;;;;;;-140.72;100.00;53300.00;5082627;28;19917;-72
2023/03/08 01:29:25;;;;;;;;;;;;;;;-140.72;100.00;53293.91;5067528;28;20430;-72
2023/03/08 01:31:50;;;;;;;;;;;;;;;-140.72;100.00;53239.13;5071325;28;19963;-72
2023/03/08 01:34:15;;;;;;;;;;;;;;;-140.72;100.00;53289.88;5071397;28;20278;-72
2023/03/08 01:36:40;;;;;;;;;;;;;;;-140.72;100.00;53279.72;5066989;28;19938;-72
2023/03/08 01:39:06;;;;;;;;;;;;;;;-140.72;100.00;53297.97;5069462;28;19967;-71
2023/03/08 01:41:31;;;;;;;;;;;;;;;-140.72;100.00;53304.06;5065235;28;19970;-72
2023/03/08 01:43:56;;;;;;;;;;;;;;;-140.72;100.00;53302.03;5068351;28;19923;-72
2023/03/08 01:46:26;;;;;;;;;;;;;;;-140.72;100.00;53261.44;5057088;28;19940;-72
2023/03/08 01:49:03;;;;;;;;;;;;;;;-140.72;100.00;53306.09;5069917;28;19920;-71
2023/03/08 01:51:34;;;;;;;;;;;;;;;-140.72;100.00;53312.19;5072661;28;20338;-72
2023/03/08 01:54:01;;;;;;;;;;;;;;;-140.72;100.00;53306.09;5073769;28;20011;-72
2023/03/08 01:56:27;;;;;;;;;;;;;;;-140.72;100.00;53308.13;5080583;28;19966;-72
2023/03/08 01:58:53;;;;;;;;;;;;;;;-140.72;100.00;53281.75;5078657;28;19924;-70
2023/03/08 02:01:19;;;;;;;;;;;;;;;-140.72;100.00;53312.19;5065253;28;20015;-70
2023/03/08 02:03:45;;;;;;;;;;;;;;;-140.72;100.00;53293.91;5074170;28;19917;-70
2023/03/08 02:06:11;;;;;;;;;;;;;;;-140.72;100.00;53295.94;5075814;28;19920;-71
2023/03/08 02:08:37;;;;;;;;;;;;;;;-140.72;100.00;53295.94;5061192;28;19921;-70
2023/03/08 02:11:02;;;;;;;;;;;;;;;-140.72;100.00;53342.63;5068968;28;19941;-71
2023/03/08 02:13:27;;;;;;;;;;;;;;;-140.72;100.00;53330.44;5071573;28;19916;-71
2023/03/08 02:15:55;;;;;;;;;;;;;;;-140.72;100.00;53273.63;5073194;28;19916;-70
2023/03/08 02:18:21;;;;;;;;;;;;;;;-140.72;100.00;53300.00;5073480;28;19917;-70
2023/03/08 02:20:46;;;;;;;;;;;;;;;-140.72;100.00;53271.59;5073226;28;19923;-71
2023/03/08 02:23:14;;;;;;;;;;;;;;;-140.72;100.00;53324.38;5071809;28;20371;-70
2023/03/08 02:25:40;;;;;;;;;;;;;;;-140.72;100.00;53279.72;5071522;28;19923;-70
2023/03/08 02:28:07;;;;;;;;;;;;;;;-140.72;100.00;53322.34;5071776;28;20294;-71
2023/03/08 02:30:34;;;;;;;;;;;;;;;-140.72;100.00;53312.19;5066946;28;19923;-71
2023/03/08 02:33:12;;;;;;;;;;;;;;;-140.72;100.00;53316.25;5089324;28;19920;-71
2023/03/08 02:35:37;;;;;;;;;;;;;;;-140.72;100.00;53275.66;5068564;28;20426;-71
2023/03/08 02:38:03;;;;;;;;;;;;;;;-140.72;100.00;53295.94;5072421;28;19979;-71
2023/03/08 02:40:28;;;;;;;;;;;;;;;-140.72;100.00;53287.84;5076193;28;19967;-70
2023/03/08 02:42:55;;;;;;;;;;;;;;;-140.72;100.00;53267.53;5076790;28;20387;-71
2023/03/08 02:45:20;;;;;;;;;;;;;;;-140.72;100.00;53275.66;5076559;28;20507;-71
2023/03/08 02:47:46;;;;;;;;;;;;;;;-140.72;100.00;53306.09;5071961;28;20006;-71
2023/03/08 02:50:11;;;;;;;;;;;;;;;-140.72;100.00;53235.06;5075886;28;19921;-71
2023/03/08 02:52:36;;;;;;;;;;;;;;;-140.72;100.00;53302.03;5076782;28;19938;-71
2023/03/08 02:55:01;;;;;;;;;;;;;;;-140.72;100.00;53235.06;5062176;28;19992;-71
2023/03/08 02:57:27;;;;;;;;;;;;;;;-140.72;100.00;53287.84;5071830;28;19927;-71
2023/03/08 02:59:52;;;;;;;;;;;;;;;-140.72;100.00;53273.63;5063859;28;19927;-71
2023/03/08 03:02:17;;;;;;;;;;;;;;;-140.72;100.00;53283.78;5076474;28;19978;-71
2023/03/08 03:04:48;;;;;;;;;;;;;;;-140.72;100.00;53287.84;5076433;28;19916;-71
2023/03/08 03:07:13;;;;;;;;;;;;;;;-140.72;100.00;53322.34;5075977;28;19917;-71
2023/03/08 03:09:38;;;;;;;;;;;;;;;-140.72;100.00;53318.28;5076587;28;19943;-71
2023/03/08 03:12:03;;;;;;;;;;;;;;;-140.72;100.00;53287.84;5076671;28;19940;-70
2023/03/08 03:14:29;;;;;;;;;;;;;;;-140.72;100.00;53259.41;5084311;28;19965;-71
2023/03/08 03:16:54;;;;;;;;;;;;;;;-140.72;100.00;53251.31;5069415;28;20371;-71
2023/03/08 03:19:19;;;;;;;;;;;;;;;-140.72;100.00;53259.41;5067603;28;19986;-71
2023/03/08 03:21:44;;;;;;;;;;;;;;;-140.72;100.00;53302.03;5074980;28;19916;-71
2023/03/08 03:24:10;;;;;;;;;;;;;;;-140.72;100.00;53295.94;5063100;28;19959;-71
2023/03/08 03:26:35;;;;;;;;;;;;;;;-140.72;100.00;53295.94;5069477;28;19927;-70
2023/03/08 03:29:00;;;;;;;;;;;;;;;-140.72;100.00;53304.06;5076705;28;19995;-71
2023/03/08 03:31:26;;;;;;;;;;;;;;;-140.72;100.00;53330.44;5075407;28;19916;-71
2023/03/08 03:33:51;;;;;;;;;;;;;;;-140.72;100.00;53283.78;5075499;28;19916;-71
2023/03/08 03:36:18;;;;;;;;;;;;;;;-140.72;100.00;53273.63;5072201;28;20407;-71
2023/03/08 03:38:44;;;;;;;;;;;;;;;-140.72;100.00;53291.88;5075574;28;19923;-71
2023/03/08 03:41:10;;;;;;;;;;;;;;;-140.72;100.00;53306.09;5075891;28;19916;-71
2023/03/08 03:43:36;;;;;;;;;;;;;;;-140.72;100.00;53265.50;5069226;28;20016;-71
2023/03/08 03:46:03;;;;;;;;;;;;;;;-140.72;100.00;53295.94;5069907;28;19955;-71
2023/03/08 03:48:28;;;;;;;;;;;;;;;-140.72;100.00;53300.00;5082587;28;19916;-71
2023/03/08 03:50:57;;;;;;;;;;;;;;;-140.72;100.00;53285.81;5078198;28;19923;-71
2023/03/08 03:53:23;;;;;;;;;;;;;;;-140.72;100.00;53231.00;5063979;28;19939;-71
2023/03/08 03:55:49;;;;;;;;;;;;;;;-140.72;100.00;53322.34;5062910;28;19920;-71
2023/03/08 03:58:14;;;;;;;;;;;;;;;-140.72;100.00;53263.47;5087797;28;19917;-71
2023/03/08 04:00:39;;;;;;;;;;;;;;;-140.72;100.00;53297.97;5064820;28;19920;-71
2023/03/08 04:03:04;;;;;;;;;;;;;;;-140.72;100.00;53310.16;5081357;28;19923;-71
2023/03/08 04:05:30;;;;;;;;;;;;;;;-140.72;100.00;53273.63;5082965;28;20359;-71
2023/03/08 04:07:55;;;;;;;;;;;;;;;-140.72;100.00;53297.97;5079443;28;19920;-71
2023/03/08 04:10:20;;;;;;;;;;;;;;;-140.72;100.00;53295.94;5075267;28;19920;-71
2023/03/08 04:12:48;;;;;;;;;;;;;;;-140.72;100.00;53295.94;5056864;28;19917;-71
2023/03/08 04:15:14;;;;;;;;;;;;;;;-140.72;100.00;53267.53;5067679;28;19917;-70
2023/03/08 04:17:39;;;;;;;;;;;;;;;-140.72;100.00;53295.94;5074166;28;20418;-71
2023/03/08 04:20:05;;;;;;;;;;;;;;;-140.72;100.00;53326.41;5074711;28;19970;-71
2023/03/08 04:22:30;;;;;;;;;;;;;;;-140.72;100.00;53265.50;5072844;28;20327;-71
2023/03/08 04:24:55;;;;;;;;;;;;;;;-140.72;100.00;53289.88;5074753;28;19916;-71
2023/03/08 04:27:20;;;;;;;;;;;;;;;-140.72;100.00;53281.75;5074518;28;19928;-71
2023/03/08 04:29:46;;;;;;;;;;;;;;;-140.72;100.00;53269.56;5073471;28;19916;-71
2023/03/08 04:32:11;;;;;;;;;;;;;;;-140.72;100.00;53255.34;5069058;28;19917;-70
2023/03/08 04:34:36;;;;;;;;;;;;;;;-140.72;100.00;53312.19;5099977;28;19923;-71
2023/03/08 04:37:01;;;;;;;;;;;;;;;-140.72;100.00;53233.03;5074265;28;20346;-71
2023/03/08 04:39:27;;;;;;;;;;;;;;;-140.72;100.00;53255.34;5073278;28;19923;-71
2023/03/08 04:41:52;;;;;;;;;;;;;;;-140.72;100.00;53304.06;5074056;28;20008;-71
2023/03/08 04:44:17;;;;;;;;;;;;;;;-140.72;100.00;53295.94;5074926;28;19979;-71
2023/03/08 04:46:42;;;;;;;;;;;;;;;-140.72;100.00;53302.03;5059534;28;19962;-71
2023/03/08 04:49:08;;;;;;;;;;;;;;;-140.72;100.00;53273.63;5074230;28;19973;-70
2023/03/08 04:51:33;;;;;;;;;;;;;;;-140.72;100.00;53320.31;5059245;28;19920;-71
2023/03/08 04:53:58;;;;;;;;;;;;;;;-140.72;100.00;53228.97;5073978;28;20015;-71
2023/03/08 04:56:23;;;;;;;;;;;;;;;-140.72;100.00;53295.94;5056034;28;19990;-71
2023/03/08 04:58:48;;;;;;;;;;;;;;;-140.72;100.00;53273.63;5068935;28;19927;-70
2023/03/08 05:01:15;;;;;;;;;;;;;;;-140.72;100.00;53255.34;5070966;28;19932;-70
2023/03/08 05:03:41;;;;;;;;;;;;;;;-140.72;100.00;53253.31;5070008;28;19917;-71
2023/03/08 05:06:06;;;;;;;;;;;;;;;-140.72;100.00;53314.22;5067260;28;20234;-72
2023/03/08 05:08:31;;;;;;;;;;;;;;;-140.72;100.00;53271.59;5074129;28;19923;-71
2023/03/08 05:10:58;;;;;;;;;;;;;;;-140.72;100.00;53255.34;5079734;28;19944;-72
2023/03/08 05:13:26;;;;;;;;;;;;;;;-140.72;100.00;53316.25;5063773;28;19955;-72
2023/03/08 05:15:52;;;;;;;;;;;;;;;-140.72;100.00;53283.78;5069326;28;19923;-71
2023/03/08 05:18:17;;;;;;;;;;;;;;;-140.72;100.00;53304.06;5074096;28;20278;-72
2023/03/08 05:20:42;;;;;;;;;;;;;;;-140.72;100.00;53285.81;5068911;28;19923;-71
2023/03/08 05:23:08;;;;;;;;;;;;;;;-140.72;100.00;53320.31;5064097;28;19921;-71
2023/03/08 05:25:34;;;;;;;;;;;;;;;-140.72;100.00;53310.16;5073288;28;20287;-71
2023/03/08 05:27:59;;;;;;;;;;;;;;;-140.72;100.00;53267.53;5065522;28;19921;-71
2023/03/08 05:30:24;;;;;;;;;;;;;;;-140.72;100.00;53312.19;5072251;28;19921;-70
2023/03/08 05:32:49;;;;;;;;;;;;;;;-140.72;100.00;53300.00;5074229;28;19916;-70
2023/03/08 05:35:15;;;;;;;;;;;;;;;-140.72;100.00;53273.63;5060075;28;19917;-71
2023/03/08 05:37:40;;;;;;;;;;;;;;;-140.72;100.00;53275.66;5072188;28;19921;-71
2023/03/08 05:40:05;;;;;;;;;;;;;;;-140.72;100.00;53263.47;5073767;28;19920;-71
2023/03/08 05:42:31;;;;;;;;;;;;;;;-140.72;100.00;53261.44;5073637;28;20236;-71
2023/03/08 05:44:56;;;;;;;;;;;;;;;-140.72;100.00;53273.63;5080492;28;19923;-70
2023/03/08 05:47:22;;;;;;;;;;;;;;;-140.72;100.00;53275.66;5069421;28;19916;-72
2023/03/08 05:49:47;;;;;;;;;;;;;;;-140.72;100.00;53271.59;5097795;28;20321;-71
2023/03/08 05:52:28;;;;;;;;;;;;;;;-140.72;100.00;53306.09;5078815;28;19983;-71
2023/03/08 05:54:54;;;;;;;;;;;;;;;-140.72;100.00;53255.34;5084960;28;19952;-70
2023/03/08 05:57:19;;;;;;;;;;;;;;;-140.72;100.00;53283.78;5077102;28;19917;-70
2023/03/08 05:59:44;;;;;;;;;;;;;;;-140.72;100.00;53340.59;5071946;28;20349;-71
2023/03/08 06:02:09;;;;;;;;;;;;;;;-140.72;100.00;53267.53;5060550;28;20383;-71
2023/03/08 06:04:34;;;;;;;;;;;;;;;-140.72;100.00;53326.41;5065183;28;19916;-71
2023/03/08 06:07:00;;;;;;;;;;;;;;;-140.72;100.00;53259.41;5074973;28;20286;-70
2023/03/08 06:09:25;;;;;;;;;;;;;;;-140.72;100.00;53314.22;5072539;28;19978;-71
2023/03/08 06:11:50;;;;;;;;;;;;;;;-140.72;100.00;53324.38;5063415;28;19939;-71
2023/03/08 06:14:15;;;;;;;;;;;;;;;-140.72;100.00;53279.72;5069577;28;19917;-71
2023/03/08 06:16:41;;;;;;;;;;;;;;;-140.72;100.00;53287.84;5068355;28;19920;-70
2023/03/08 06:19:06;;;;;;;;;;;;;;;-140.72;100.00;53281.75;5077107;28;19923;-71
2023/03/08 06:21:31;;;;;;;;;;;;;;;-140.72;100.00;53300.00;5065830;28;19923;-73
2023/03/08 06:23:56;;;;;;;;;;;;;;;-140.72;100.00;53216.78;5080083;28;19916;-73
2023/03/08 06:26:21;;;;;;;;;;;;;;;-140.72;100.00;53300.00;5080814;28;19921;-73
2023/03/08 06:28:47;;;;;;;;;;;;;;;-140.72;100.00;53265.50;5108956;27;19926;-74
2023/03/08 06:31:13;;;;;;;;;;;;;;;-140.72;100.00;53285.81;5073168;28;19920;-75
2023/03/08 06:33:39;;;;;;;;;;;;;;;-140.72;100.00;53338.56;5074501;28;19925;-75
2023/03/08 06:36:08;;;;;;;;;;;;;;;-140.72;100.00;53271.59;5092357;28;19940;-70
2023/03/08 06:38:34;;;;;;;;;;;;;;;-140.72;100.00;53257.38;5076356;28;19970;-71
2023/03/08 06:41:00;;;;;;;;;;;;;;;-140.72;100.00;53251.31;5082986;28;19947;-71
2023/03/08 06:43:25;;;;;;;;;;;;;;;-140.72;100.00;53279.72;5077465;28;20388;-71
2023/03/08 06:45:51;;;;;;;;;;;;;;;-140.72;100.00;53261.44;5076748;28;20256;-70
2023/03/08 06:48:28;;;;;;;;;;;;;;;-140.72;100.00;53283.78;5071752;28;19916;-71
2023/03/08 06:50:53;;;;;;;;;;;;;;;-140.72;100.00;53293.91;5076123;28;19939;-70
2023/03/08 06:53:18;;;;;;;;;;;;;;;-140.72;100.00;53310.16;5063614;28;20010;-70
2023/03/08 06:55:44;;;;;;;;;;;;;;;-140.72;100.00;53235.06;5076045;28;20015;-70
2023/03/08 06:58:09;;;;;;;;;;;;;;;-140.72;100.00;53291.88;5074982;28;19916;-71
2023/03/08 07:00:34;;;;;;;;;;;;;;;-140.72;100.00;53271.59;5076159;28;19955;-71
2023/03/08 07:03:00;;;;;;;;;;;;;;;-140.72;100.00;53247.25;5067180;28;19924;-71
2023/03/08 07:05:25;;;;;;;;;;;;;;;-140.72;100.00;53267.53;5058939;28;19928;-70
2023/03/08 07:07:50;;;;;;;;;;;;;;;-140.72;100.00;53267.53;5074001;28;19917;-71
2023/03/08 07:10:18;;;;;;;;;;;;;;;-140.72;100.00;53271.59;5065817;28;20379;-71
2023/03/08 07:12:47;;;;;;;;;;;;;;;-140.72;100.00;53289.88;5074371;28;19925;-71
2023/03/08 07:15:13;;;;;;;;;;;;;;;-140.72;100.00;53291.88;5065587;28;19917;-70
2023/03/08 07:17:39;;;;;;;;;;;;;;;-140.72;100.00;53267.53;5082404;28;19963;-72
2023/03/08 07:20:05;;;;;;;;;;;;;;;-140.72;100.00;53251.31;5084018;28;19923;-71
2023/03/08 07:22:30;;;;;;;;;;;;;;;-140.72;100.00;53271.59;5107711;28;19927;-71
2023/03/08 07:24:55;;;;;;;;;;;;;;;-140.72;100.00;53283.78;5077691;28;19917;-71
2023/03/08 07:27:21;;;;;;;;;;;;;;;-140.72;100.00;53271.59;5104636;28;20298;-70
2023/03/08 07:29:48;;;;;;;;;;;;;;;-140.72;100.00;53285.81;5083571;28;19927;-70
2023/03/08 07:32:13;;;;;;;;;;;;;;;-140.72;100.00;53275.66;5061046;28;19999;-70
2023/03/08 07:35:00;;;;;;;;;;;;;;;-140.72;100.00;53304.06;5069130;28;20011;-70
2023/03/08 07:37:26;;;;;;;;;;;;;;;-140.72;100.00;53275.66;5056298;28;19917;-70
2023/03/08 07:39:51;;;;;;;;;;;;;;;-140.72;100.00;53285.81;5084952;28;19985;-70
2023/03/08 07:42:16;;;;;;;;;;;;;;;-140.72;100.00;53249.28;5065853;28;19924;-70
2023/03/08 07:44:41;;;;;;;;;;;;;;;-140.72;100.00;53245.22;5072884;28;19943;-70
2023/03/08 07:47:07;;;;;;;;;;;;;;;-140.72;100.00;53239.13;5057869;28;19917;-70
2023/03/08 07:49:32;;;;;;;;;;;;;;;-140.72;100.00;53259.41;5064091;28;20275;-70
2023/03/08 07:51:58;;;;;;;;;;;;;;;-140.72;100.00;53271.59;5076556;28;20011;-70
2023/03/08 07:54:23;;;;;;;;;;;;;;;-140.72;100.00;53245.22;5059733;28;20001;-70
2023/03/08 07:56:50;;;;;;;;;;;;;;;-140.72;100.00;53263.47;5066473;28;19991;-70
2023/03/08 07:59:15;;;;;;;;;;;;;;;-140.72;100.00;53231.00;5068648;28;19948;-72
2023/03/08 08:01:40;;;;;;;;;;;;;;;-140.72;100.00;53263.47;5070128;28;19964;-72
2023/03/08 08:04:07;;;;;;;;;;;;;;;-140.72;100.00;53255.34;5072140;28;20011;-71
2023/03/08 08:06:34;;;;;;;;;;;;;;;-140.72;100.00;53251.31;5076522;28;20038;-72
2023/03/08 08:08:59;;;;;;;;;;;;;;;-140.72;100.00;53245.22;5074875;28;20283;-71
2023/03/08 08:11:24;;;;;;;;;;;;;;;-140.72;100.00;53265.50;5075027;28;19920;-72
2023/03/08 08:13:50;;;;;;;;;;;;;;;-140.72;100.00;53243.19;5072106;28;19917;-72
2023/03/08 08:16:15;;;;;;;;;;;;;;;-140.72;100.00;53259.41;5061360;28;19995;-72
2023/03/08 08:18:41;;;;;;;;;;;;;;;-140.72;100.00;53243.19;5097647;28;19917;-73
2023/03/08 08:21:08;;;;;;;;;;;;;;;-140.72;100.00;53243.19;5072080;28;19924;-72
2023/03/08 08:23:34;;;;;;;;;;;;;;;-140.72;100.00;53231.00;5064376;28;19917;-74
2023/03/08 08:25:59;;;;;;;;;;;;;;;-140.72;100.00;53261.44;5068600;28;19967;-72
2023/03/08 08:28:25;;;;;;;;;;;;;;;-140.72;100.00;53251.31;5066388;28;19923;-72
2023/03/08 08:31:01;;;;;;;;;;;;;;;-140.72;100.00;53243.19;5065232;28;19935;-72
2023/03/08 08:33:27;;;;;;;;;;;;;;;-140.72;100.00;53241.16;5073218;28;19920;-72
2023/03/08 08:35:53;;;;;;;;;;;;;;;-140.72;100.00;53216.78;5070350;28;19927;-72
2023/03/08 08:38:18;;;;;;;;;;;;;;;-140.72;100.00;53204.63;5077073;28;19924;-72
2023/03/08 08:40:43;;;;;;;;;;;;;;;-140.72;100.00;53265.50;5076338;28;19920;-72
2023/03/08 08:43:08;;;;;;;;;;;;;;;-140.72;100.00;53265.50;5074005;28;20272;-74
2023/03/08 08:45:34;;;;;;;;;;;;;;;-140.72;100.00;53253.31;5074048;28;20276;-73
2023/03/08 08:47:59;;;;;;;;;;;;;;;-140.72;100.00;53249.28;5062406;28;19956;-73
2023/03/08 08:50:24;;;;;;;;;;;;;;;-140.72;100.00;53204.63;5058285;28;19921;-74
2023/03/08 08:52:49;;;;;;;;;;;;;;;-140.72;100.00;53224.91;5075996;28;20285;-73
2023/03/08 08:55:14;;;;;;;;;;;;;;;-140.72;100.00;53235.06;5081493;28;20386;-74
2023/03/08 08:57:40;;;;;;;;;;;;;;;-140.72;100.00;53239.13;5058869;28;19924;-74
2023/03/08 09:00:08;;;;;;;;;;;;;;;-140.72;100.00;53269.56;5076083;28;19998;-77
2023/03/08 09:02:34;;;;;;;;;;;;;;;-140.72;100.00;53259.41;5073479;28;19920;-74
2023/03/08 09:04:59;;;;;;;;;;;;;;;-140.72;100.00;53204.63;5068845;28;19923;-74
2023/03/08 09:07:25;;;;;;;;;;;;;;;-140.72;100.00;53243.19;5072249;28;19923;-73
2023/03/08 09:09:53;;;;;;;;;;;;;;;-140.72;100.00;53166.06;5071577;28;20003;-72
2023/03/08 09:12:19;;;;;;;;;;;;;;;-140.72;100.00;53224.91;5084537;28;19923;-73
2023/03/08 09:14:45;;;;;;;;;;;;;;;-140.72;100.00;53208.69;5072316;28;19927;-72
2023/03/08 09:17:16;;;;;;;;;;;;;;;-140.72;100.00;53190.41;5069082;28;20390;-73
2023/03/08 09:19:41;;;;;;;;;;;;;;;-140.72;100.00;53237.09;5068022;28;19971;-73
2023/03/08 09:22:06;;;;;;;;;;;;;;;-140.72;100.00;53222.88;5068799;28;20359;-72
2023/03/08 09:24:31;;;;;;;;;;;;;;;-140.72;100.00;53198.53;5071082;28;19917;-72
2023/03/08 09:26:57;;;;;;;;;;;;;;;-140.72;100.00;53172.16;5068685;28;19921;-71
2023/03/08 09:29:22;;;;;;;;;;;;;;;-140.72;100.00;53210.72;5067711;28;20397;-72
2023/03/08 09:31:47;;;;;;;;;;;;;;;-140.72;100.00;53166.06;5069474;28;19920;-71
2023/03/08 09:34:14;;;;;;;;;;;;;;;-140.72;100.00;53192.44;5062809;28;19952;-72
2023/03/08 09:36:39;;;;;;;;;;;;;;;-140.72;100.00;53202.59;5066593;28;19924;-72
2023/03/08 09:39:07;;;;;;;;;;;;;;;-140.72;100.00;53206.66;5065596;28;20543;-72
2023/03/08 09:41:35;;;;;;;;;;;;;;;-140.72;100.00;53174.19;5068568;28;19923;-72
2023/03/08 09:44:12;;;;;;;;;;;;;;;-140.72;100.00;53190.41;5067935;28;20003;-72
2023/03/08 09:46:49;;;;;;;;;;;;;;;-140.72;100.00;53186.34;5070862;28;19916;-72
2023/03/08 09:49:20;;;;;;;;;;;;;;;-140.72;100.00;53194.47;5067812;28;19920;-73
2023/03/08 09:51:47;;;;;;;;;;;;;;;-140.72;100.00;53192.44;5070395;28;19917;-72
2023/03/08 09:54:16;;;;;;;;;;;;;;;-140.72;100.00;53147.78;5070793;28;20033;-72
2023/03/08 09:56:45;;;;;;;;;;;;;;;-140.72;100.00;53157.94;5068311;28;20337;-72
2023/03/08 09:59:13;;;;;;;;;;;;;;;-140.72;100.00;53147.78;5071518;28;19931;-71
2023/03/08 10:01:41;;;;;;;;;;;;;;;-140.72;100.00;53155.91;5069995;28;19920;-72
2023/03/08 10:04:09;;;;;;;;;;;;;;;-140.72;100.00;53166.06;5070097;28;19920;-72
2023/03/08 10:06:55;;;;;;;;;;;;;;;-140.72;100.00;53113.28;5072397;28;20367;-72
2023/03/08 10:09:30;;;;;;;;;;;;;;;-140.72;100.00;53164.03;5066766;28;19921;-72
2023/03/08 10:12:15;;;;;;;;;;;;;;;-140.72;100.00;53131.56;5060165;28;19987;-72
2023/03/08 10:14:48;;;;;;;;;;;;;;;-140.72;100.00;53172.16;5068155;28;20436;-72
2023/03/08 10:17:32;;;;;;;;;;;;;;;-140.72;100.00;53115.31;5062309;28;20279;-71
2023/03/08 10:20:07;;;;;;;;;;;;;;;-140.72;100.00;53153.88;5091347;28;20028;-71
2023/03/08 10:22:37;;;;;;;;;;;;;;;-140.72;100.00;53113.28;5066751;28;20371;-72
2023/03/08 10:25:15;;;;;;;;;;;;;;;-140.72;100.00;53184.31;5069977;28;19916;-72
2023/03/08 10:27:40;;;;;;;;;;;;;;;-140.72;100.00;53145.75;5070169;28;20003;-71
2023/03/08 10:30:29;;;;;;;;;;;;;;;-140.72;100.00;53157.94;5068413;28;19970;-72
2023/03/08 10:32:57;;;;;;;;;;;;;;;-140.72;100.00;53125.47;5061307;28;19908;-72
2023/03/08 10:35:31;;;;;;;;;;;;;;;-140.72;100.00;53166.06;5071117;28;19973;-72
2023/03/08 10:37:57;;;;;;;;;;;;;;;-140.72;100.00;53151.84;5066991;28;20056;-72
2023/03/08 10:40:22;;;;;;;;;;;;;;;-140.72;100.00;53170.13;5069855;28;19920;-72
2023/03/08 10:42:56;;;;;;;;;;;;;;;-140.72;100.00;53162.00;5101218;28;19924;-72
2023/03/08 10:45:24;;;;;;;;;;;;;;;-140.72;100.00;53147.78;5067534;28;19939;-72
2023/03/08 10:47:53;;;;;;;;;;;;;;;-140.72;100.00;53180.25;5070244;28;19933;-72
2023/03/08 10:50:20;;;;;;;;;;;;;;;-140.72;100.00;53196.50;5070754;28;19924;-72
2023/03/08 10:52:47;;;;;;;;;;;;;;;-140.72;100.00;53162.00;5086990;28;20388;-72
2023/03/08 10:55:17;;;;;;;;;;;;;;;-140.72;100.00;53153.88;5078644;28;19924;-72
2023/03/08 10:58:02;;;;;;;;;;;;;;;-140.72;100.00;53133.59;5078583;28;20363;-72
2023/03/08 11:00:32;;;;;;;;;;;;;;;-140.72;100.00;53129.53;5078743;28;20447;-72
2023/03/08 11:03:17;;;;;;;;;;;;;;;-140.72;100.00;53170.13;5075350;28;19923;-73
2023/03/08 11:05:59;;;;;;;;;;;;;;;-140.72;100.00;53133.59;5076842;28;20034;-72
2023/03/08 11:08:44;;;;;;;;;;;;;;;-140.72;100.00;53141.69;5073116;28;19917;-72
2023/03/08 11:11:11;;;;;;;;;;;;;;;-140.72;100.00;53121.41;5066979;28;19920;-72
2023/03/08 11:13:40;;;;;;;;;;;;;;;-140.72;100.00;53137.66;5072788;28;19921;-73
2023/03/08 11:16:09;;;;;;;;;;;;;;;-140.72;100.00;53139.69;5071669;28;20287;-72
2023/03/08 11:18:43;;;;;;;;;;;;;;;-140.72;100.00;53109.22;5063448;28;20329;-71
2023/03/08 11:21:21;;;;;;;;;;;;;;;-140.72;100.00;53117.34;5073225;28;20007;-70
2023/03/08 11:24:07;;;;;;;;;;;;;;;-140.72;100.00;53123.44;5076165;28;19917;-69
2023/03/08 11:26:39;;;;;;;;;;;;;;;-140.72;100.00;53131.56;5064192;28;19916;-73
2023/03/08 11:29:23;;;;;;;;;;;;;;;-140.72;100.00;53125.47;5076079;28;19928;-70
2023/03/08 11:31:51;;;;;;;;;;;;;;;-140.72;100.00;53129.53;5090409;28;19917;-70
2023/03/08 11:34:16;;;;;;;;;;;;;;;-140.72;100.00;53170.13;5073704;28;19948;-70
2023/03/08 11:36:48;;;;;;;;;;;;;;;-140.72;100.00;53068.66;5074798;28;19923;-70
2023/03/08 11:39:32;;;;;;;;;;;;;;;-140.72;99.86;53090.97;5077293;28;19986;-70
2023/03/08 11:41:57;;;;;;;;;;;;;;;-140.72;87.42;53019.94;5055309;28;19928;-70
2023/03/08 11:44:39;;;;;;;;;;;;;;;-140.72;35.64;52989.50;5066773;28;19916;-70
2023/03/08 11:47:23;;;;;;;;;;;;;;;-140.72;0.00;53011.81;5075113;28;19925;-70
2023/03/08 11:50:04;;;;;;;;;;;;;;;-140.72;0.00;53005.72;5074765;28;19928;-70
2023/03/08 11:52:29;;;;;;;;;;;;;;;-140.72;0.00;53005.72;5066201;28;19917;-70
2023/03/08 11:55:14;;;;;;;;;;;;;;;-140.72;0.00;53034.16;5073291;28;19920;-70
2023/03/08 11:57:42;;;;;;;;;;;;;;;-140.72;0.00;53062.56;5071394;28;20016;-70
2023/03/08 12:00:27;;;;;;;;;;;;;;;-140.72;0.00;53015.88;5066580;28;19924;-70
2023/03/08 12:02:53;;;;;;;;;;;;;;;-140.72;0.00;53111.25;5068402;28;19934;-70
2023/03/08 12:05:27;;;;;;;;;;;;;;;-140.72;0.00;53133.59;5074813;28;19920;-70
2023/03/08 12:07:56;;;;;;;;;;;;;;;-140.72;0.00;53117.34;5072332;28;19955;-70
2023/03/08 12:10:22;;;;;;;;;;;;;;;-140.72;0.00;53113.28;5065524;28;20283;-70
2023/03/08 12:13:09;;;;;;;;;;;;;;;-140.72;0.00;53157.94;5068559;28;19974;-70
2023/03/08 12:15:42;;;;;;;;;;;;;;;-140.72;0.00;53153.88;5069250;28;20012;-70
2023/03/08 12:18:07;;;;;;;;;;;;;;;-140.72;0.00;53162.00;5069213;28;19916;-70
2023/03/08 12:20:36;;;;;;;;;;;;;;;-140.72;0.00;53151.84;5071174;28;19920;-70